createdAt,value
2018-01-06T00:00:53.314Z,99937.19
2018-01-06T00:01:59.354Z,99937.63
2018-01-06T00:03:04.271Z,99940.17
2018-01-06T00:04:08.948Z,99942.32
2018-01-06T00:05:13.323Z,99943.19
2018-01-06T00:06:17.521Z,99944.00
2018-01-06T00:07:21.776Z,99948.65
2018-01-06T00:08:26.393Z,99940.66
2018-01-06T00:09:34.799Z,99949.95
2018-01-06T00:10:39.156Z,99947.43
2018-01-06T00:11:45.040Z,99942.80
2018-01-06T00:12:49.256Z,99947.41
2018-01-06T00:13:54.282Z,99950.86
2018-01-06T00:14:59.164Z,99941.14
2018-01-06T00:16:05.346Z,99944.08
2018-01-06T00:17:09.596Z,99944.95
2018-01-06T00:18:14.613Z,99950.02
2018-01-06T00:19:18.870Z,99944.98
2018-01-06T00:20:23.043Z,99950.51
2018-01-06T00:21:28.373Z,99955.16
2018-01-06T00:22:35.542Z,99954.36
2018-01-06T00:23:40.367Z,99955.23
2018-01-06T00:24:45.425Z,99962.92
2018-01-06T00:25:50.392Z,99962.09
2018-01-06T00:26:54.660Z,99955.67
2018-01-06T00:28:00.843Z,99957.38
2018-01-06T00:29:06.540Z,99965.38
2018-01-06T00:30:11.969Z,99968.37
2018-01-06T00:31:16.234Z,99962.84
2018-01-06T00:32:20.547Z,99972.98
2018-01-06T00:33:24.728Z,99973.87
2018-01-06T00:34:29.469Z,99982.78
2018-01-06T00:35:36.113Z,99979.86
2018-01-06T00:36:40.550Z,99984.50
2018-01-06T00:37:44.794Z,99982.34
2018-01-06T00:38:49.000Z,99982.80
2018-01-06T00:39:53.229Z,99983.22
2018-01-06T00:40:57.607Z,99983.59
2018-01-06T00:42:04.392Z,99985.28
2018-01-06T00:43:16.823Z,99978.13
2018-01-06T00:44:20.992Z,99984.06
2018-01-06T00:45:25.981Z,99978.53
2018-01-06T00:46:33.487Z,99978.53
2018-01-06T00:47:38.099Z,99981.53
2018-01-06T00:48:43.331Z,99981.06
2018-01-06T00:49:47.525Z,99980.63
2018-01-06T00:50:51.753Z,99984.44
2018-01-06T00:51:55.971Z,99984.41
2018-01-06T00:53:02.058Z,99991.97
2018-01-06T00:54:07.644Z,99989.41
2018-01-06T00:55:13.401Z,99992.72
2018-01-06T00:56:17.607Z,99990.07
2018-01-06T00:57:21.791Z,99998.52
2018-01-06T00:58:25.980Z,99996.84
2018-01-06T00:59:35.834Z,99995.95
2018-01-06T01:00:41.638Z,99997.22
2018-01-06T01:01:45.948Z,99994.69
2018-01-06T01:02:50.124Z,100001.52
2018-01-06T01:03:54.324Z,100004.95
2018-01-06T01:04:58.605Z,99999.45
2018-01-06T01:06:05.495Z,99999.88
2018-01-06T01:07:11.037Z,99993.58
2018-01-06T01:08:15.456Z,100000.39
2018-01-06T01:09:19.759Z,99991.52
2018-01-06T01:10:23.923Z,99994.10
2018-01-06T01:11:28.107Z,99994.11
2018-01-06T01:12:33.942Z,99995.45
2018-01-06T01:13:38.452Z,99991.20
2018-01-06T01:14:42.675Z,99993.77
2018-01-06T01:15:46.861Z,100000.13
2018-01-06T01:16:51.808Z,100001.02
2018-01-06T01:17:56.115Z,99998.50
2018-01-06T01:19:00.969Z,99991.35
2018-01-06T01:20:07.298Z,99997.27
2018-01-06T01:21:11.944Z,99988.40
2018-01-06T01:22:16.117Z,99993.45
2018-01-06T01:23:21.085Z,99991.78
2018-01-06T01:24:25.251Z,99991.35
2018-01-06T01:25:30.057Z,99994.75
2018-01-06T01:26:34.929Z,99993.53
2018-01-06T01:27:39.970Z,99999.88
2018-01-06T01:28:44.241Z,99999.89
2018-01-06T01:29:48.538Z,100001.55
2018-01-06T01:30:53.500Z,100001.56
2018-01-06T01:31:57.739Z,99996.09
2018-01-06T01:33:04.303Z,100005.78
2018-01-06T01:34:09.217Z,100003.62
2018-01-06T01:35:13.679Z,100006.89
2018-01-06T01:36:17.901Z,100011.06
2018-01-06T01:37:22.121Z,100010.19
2018-01-06T01:38:27.109Z,100010.12
2018-01-06T01:39:34.943Z,100007.97
2018-01-06T01:40:39.359Z,100011.83
2018-01-06T01:41:43.756Z,100014.41
2018-01-06T01:42:47.936Z,100017.41
2018-01-06T01:43:52.202Z,100019.13
2018-01-06T01:44:57.232Z,100019.96
2018-01-06T01:46:03.714Z,100019.16
2018-01-06T01:47:08.133Z,100020.45
2018-01-06T01:48:13.270Z,100022.59
2018-01-06T01:49:17.439Z,100016.73
2018-01-06T01:50:21.771Z,100026.48
2018-01-06T01:51:26.743Z,100023.53
2018-01-06T01:52:32.526Z,100024.40
2018-01-06T01:53:37.216Z,100024.88
2018-01-06T01:54:41.733Z,100026.13
2018-01-06T01:55:45.964Z,100032.48
2018-01-06T01:56:50.173Z,100043.06
2018-01-06T01:57:54.376Z,100040.52
2018-01-06T01:58:59.476Z,100047.67
2018-01-06T02:00:06.273Z,100042.59
2018-01-06T02:01:10.966Z,100048.54
2018-01-06T02:02:15.413Z,100045.61
2018-01-06T02:03:19.666Z,100043.87
2018-01-06T02:04:24.640Z,100044.72
2018-01-06T02:05:29.117Z,100044.34
2018-01-06T02:06:34.518Z,100048.53
2018-01-06T02:07:39.058Z,100046.47
2018-01-06T02:08:43.416Z,100047.34
2018-01-06T02:09:47.612Z,100049.42
2018-01-06T02:10:51.855Z,100057.90
2018-01-06T02:11:56.084Z,100059.16
2018-01-06T02:13:00.830Z,100056.61
2018-01-06T02:14:05.614Z,100064.20
2018-01-06T02:15:10.263Z,100066.73
2018-01-06T02:16:14.583Z,100069.25
2018-01-06T02:17:18.849Z,100072.19
2018-01-06T02:18:23.090Z,100075.65
2018-01-06T02:19:27.305Z,100069.30
2018-01-06T02:20:32.718Z,100073.11
2018-01-06T02:21:38.122Z,100073.11
2018-01-06T02:22:42.726Z,100070.98
2018-01-06T02:23:46.989Z,100069.63
2018-01-06T02:24:51.192Z,100067.95
2018-01-06T02:25:55.605Z,100074.69
2018-01-06T02:27:01.246Z,100072.57
2018-01-06T02:28:06.864Z,100066.58
2018-01-06T02:29:12.126Z,100066.10
2018-01-06T02:30:16.308Z,100069.91
2018-01-06T02:31:21.253Z,100071.15
2018-01-06T02:32:25.455Z,100069.89
2018-01-06T02:33:30.578Z,100071.15
2018-01-06T02:34:35.173Z,100067.34
2018-01-06T02:35:39.587Z,100070.26
2018-01-06T02:36:43.910Z,100065.63
2018-01-06T02:37:48.884Z,100066.93
2018-01-06T02:38:53.853Z,100057.61
2018-01-06T02:39:58.139Z,100057.59
2018-01-06T02:41:03.651Z,100054.22
2018-01-06T02:42:08.861Z,100045.78
2018-01-06T02:43:14.390Z,100049.63
2018-01-06T02:44:18.572Z,100048.72
2018-01-06T02:45:22.754Z,100058.16
2018-01-06T02:46:26.930Z,100059.01
2018-01-06T02:47:32.037Z,100062.44
2018-01-06T02:48:37.429Z,100069.23
2018-01-06T02:49:41.887Z,100067.91
2018-01-06T02:50:46.834Z,100066.69
2018-01-06T02:51:51.087Z,100071.34
2018-01-06T02:52:55.277Z,100072.62
2018-01-06T02:54:01.204Z,100077.73
2018-01-06T02:55:06.021Z,100083.25
2018-01-06T02:56:11.244Z,100088.32
2018-01-06T02:57:15.802Z,100094.23
2018-01-06T02:58:20.772Z,100095.14
2018-01-06T02:59:25.007Z,100096.83
2018-01-06T03:00:30.028Z,100091.77
2018-01-06T03:01:36.019Z,100097.70
2018-01-06T03:02:41.099Z,100097.69
2018-01-06T03:03:45.327Z,100100.25
2018-01-06T03:04:49.575Z,100096.88
2018-01-06T03:05:54.595Z,100093.91
2018-01-06T03:07:00.644Z,100097.30
2018-01-06T03:08:05.728Z,100101.94
2018-01-06T03:09:10.341Z,100105.33
2018-01-06T03:10:14.591Z,100104.87
2018-01-06T03:11:18.826Z,100107.03
2018-01-06T03:12:23.844Z,100111.67
2018-01-06T03:13:28.099Z,100113.81
2018-01-06T03:14:33.093Z,100110.41
2018-01-06T03:15:37.568Z,100114.21
2018-01-06T03:16:42.604Z,100109.56
2018-01-06T03:17:46.791Z,100108.66
2018-01-06T03:18:51.000Z,100109.92
2018-01-06T03:19:55.208Z,100110.72
2018-01-06T03:21:00.422Z,100119.16
2018-01-06T03:22:05.048Z,100121.23
2018-01-06T03:23:09.457Z,100129.65
2018-01-06T03:24:13.962Z,100127.97
2018-01-06T03:25:18.132Z,100126.64
2018-01-06T03:26:22.623Z,100125.34
2018-01-06T03:27:26.882Z,100127.84
2018-01-06T03:28:32.867Z,100130.33
2018-01-06T03:29:37.834Z,100125.65
2018-01-06T03:30:42.545Z,100126.93
2018-01-06T03:31:46.749Z,100122.27
2018-01-06T03:32:50.967Z,100119.69
2018-01-06T03:33:55.135Z,100119.27
2018-01-06T03:34:59.783Z,100120.09
2018-01-06T03:36:05.464Z,100121.30
2018-01-06T03:37:10.253Z,100114.94
2018-01-06T03:38:14.530Z,100118.34
2018-01-06T03:39:18.704Z,100112.81
2018-01-06T03:40:22.929Z,100117.45
2018-01-06T03:41:27.100Z,100121.28
2018-01-06T03:42:31.810Z,100123.81
2018-01-06T03:43:36.303Z,100122.52
2018-01-06T03:44:40.769Z,100116.98
2018-01-06T03:45:45.083Z,100118.28
2018-01-06T03:46:49.334Z,100122.14
2018-01-06T03:47:53.516Z,100125.09
2018-01-06T03:48:57.774Z,100123.42
2018-01-06T03:50:03.005Z,100122.08
2018-01-06T03:51:07.522Z,100121.25
2018-01-06T03:52:12.040Z,100119.19
2018-01-06T03:53:16.215Z,100121.34
2018-01-06T03:54:20.412Z,100116.67
2018-01-06T03:55:24.588Z,100120.89
2018-01-06T03:56:29.922Z,100125.53
2018-01-06T03:57:34.858Z,100122.99
2018-01-06T03:58:39.328Z,100125.10
2018-01-06T03:59:43.696Z,100124.27
2018-01-06T04:00:47.942Z,100124.70
2018-01-06T04:01:52.153Z,100128.08
2018-01-06T04:02:57.142Z,100126.83
2018-01-06T04:04:02.903Z,100127.69
2018-01-06T04:05:07.731Z,100129.80
2018-01-06T04:06:13.966Z,100136.61
2018-01-06T04:07:18.179Z,100137.86
2018-01-06T04:08:23.148Z,100135.31
2018-01-06T04:09:27.328Z,100138.25
2018-01-06T04:10:33.677Z,100132.31
2018-01-06T04:11:38.634Z,100141.22
2018-01-06T04:12:43.231Z,100134.07
2018-01-06T04:13:47.451Z,100138.33
2018-01-06T04:14:51.758Z,100137.06
2018-01-06T04:15:55.944Z,100135.34
2018-01-06T04:17:01.122Z,100139.63
2018-01-06T04:18:06.595Z,100138.38
2018-01-06T04:19:11.072Z,100137.56
2018-01-06T04:20:16.122Z,100136.73
2018-01-06T04:21:20.351Z,100136.40
2018-01-06T04:22:24.570Z,100137.28
2018-01-06T04:23:29.979Z,100143.69
2018-01-06T04:24:36.015Z,100139.48
2018-01-06T04:25:41.396Z,100143.34
2018-01-06T04:26:46.413Z,100139.11
2018-01-06T04:27:50.630Z,100143.84
2018-01-06T04:28:54.850Z,100143.02
2018-01-06T04:29:59.477Z,100145.58
2018-01-06T04:31:04.683Z,100142.21
2018-01-06T04:32:09.776Z,100139.69
2018-01-06T04:33:14.474Z,100144.33
2018-01-06T04:34:19.623Z,100140.12
2018-01-06T04:35:24.601Z,100145.16
2018-01-06T04:36:29.915Z,100151.94
2018-01-06T04:37:35.102Z,100150.28
2018-01-06T04:38:39.446Z,100149.03
2018-01-06T04:39:43.786Z,100152.41
2018-01-06T04:40:48.180Z,100146.50
2018-01-06T04:41:52.493Z,100152.41
2018-01-06T04:42:56.713Z,100153.25
2018-01-06T04:44:03.033Z,100151.17
2018-01-06T04:45:07.486Z,100152.94
2018-01-06T04:46:12.409Z,100159.67
2018-01-06T04:47:16.620Z,100154.23
2018-01-06T04:48:20.792Z,100158.89
2018-01-06T04:49:25.142Z,100160.61
2018-01-06T04:50:30.067Z,100163.98
2018-01-06T04:51:35.841Z,100170.32
2018-01-06T04:52:40.264Z,100174.17
2018-01-06T04:53:44.502Z,100172.02
2018-01-06T04:54:48.724Z,100169.11
2018-01-06T04:55:53.716Z,100173.38
2018-01-06T04:56:58.428Z,100172.05
2018-01-06T04:58:04.553Z,100167.03
2018-01-06T04:59:09.066Z,100170.02
2018-01-06T05:00:13.664Z,100176.39
2018-01-06T05:01:18.609Z,100175.11
2018-01-06T05:02:23.604Z,100181.02
2018-01-06T05:03:28.021Z,100175.11
2018-01-06T05:04:34.138Z,100172.15
2018-01-06T05:05:38.636Z,100168.77
2018-01-06T05:06:43.240Z,100174.24
2018-01-06T05:07:47.555Z,100179.37
2018-01-06T05:08:52.530Z,100179.77
2018-01-06T05:09:56.818Z,100189.48
2018-01-06T05:11:02.968Z,100186.11
2018-01-06T05:12:07.814Z,100184.45
2018-01-06T05:13:13.112Z,100189.52
2018-01-06T05:14:17.380Z,100189.92
2018-01-06T05:15:21.662Z,100191.17
2018-01-06T05:16:25.886Z,100190.35
2018-01-06T05:17:33.366Z,100187.84
2018-01-06T05:18:38.702Z,100190.83
2018-01-06T05:19:43.101Z,100193.79
2018-01-06T05:20:47.288Z,100199.27
2018-01-06T05:21:52.277Z,100197.61
2018-01-06T05:22:56.668Z,100199.77
2018-01-06T05:24:03.033Z,100211.15
2018-01-06T05:25:08.648Z,100210.31
2018-01-06T05:26:13.725Z,100209.93
2018-01-06T05:27:17.920Z,100217.11
2018-01-06T05:28:22.129Z,100216.67
2018-01-06T05:29:26.370Z,100217.55
2018-01-06T05:30:31.891Z,100221.75
2018-01-06T05:31:37.228Z,100225.16
2018-01-06T05:32:42.320Z,100224.33
2018-01-06T05:33:47.302Z,100224.29
2018-01-06T05:34:51.476Z,100225.16
2018-01-06T05:35:55.786Z,100225.16
2018-01-06T05:37:01.122Z,100223.90
2018-01-06T05:38:05.765Z,100222.64
2018-01-06T05:39:10.798Z,100222.65
2018-01-06T05:40:15.804Z,100225.19
2018-01-06T05:41:20.126Z,100228.61
2018-01-06T05:42:24.313Z,100229.44
2018-01-06T05:43:29.810Z,100224.38
2018-01-06T05:44:35.097Z,100222.29
2018-01-06T05:45:39.522Z,100226.98
2018-01-06T05:46:43.835Z,100228.64
2018-01-06T05:47:48.156Z,100226.97
2018-01-06T05:48:52.371Z,100227.41
2018-01-06T05:49:56.616Z,100233.32
2018-01-06T05:51:01.404Z,100232.05
2018-01-06T05:52:06.043Z,100226.16
2018-01-06T05:53:10.408Z,100226.16
2018-01-06T05:54:14.986Z,100230.81
2018-01-06T05:55:19.249Z,100233.78
2018-01-06T05:56:24.191Z,100236.70
2018-01-06T05:57:29.207Z,100248.58
2018-01-06T05:58:36.650Z,100251.97
2018-01-06T05:59:41.561Z,100254.47
2018-01-06T06:00:46.604Z,100251.52
2018-01-06T06:01:50.792Z,100250.27
2018-01-06T06:02:55.091Z,100249.43
2018-01-06T06:03:59.543Z,100254.52
2018-01-06T06:05:04.935Z,100254.95
2018-01-06T06:06:09.385Z,100254.92
2018-01-06T06:07:14.447Z,100257.94
2018-01-06T06:08:18.632Z,100257.89
2018-01-06T06:09:23.074Z,100260.48
2018-01-06T06:10:27.301Z,100258.33
2018-01-06T06:11:32.920Z,100259.62
2018-01-06T06:12:38.072Z,100259.66
2018-01-06T06:13:42.526Z,100265.56
2018-01-06T06:14:46.705Z,100261.77
2018-01-06T06:15:51.667Z,100261.37
2018-01-06T06:16:55.894Z,100264.32
2018-01-06T06:18:01.754Z,100268.58
2018-01-06T06:19:06.753Z,100269.02
2018-01-06T06:20:11.374Z,100272.81
2018-01-06T06:21:16.440Z,100270.28
2018-01-06T06:22:20.657Z,100277.44
2018-01-06T06:23:24.889Z,100277.87
2018-01-06T06:24:29.775Z,100277.87
2018-01-06T06:25:35.540Z,100277.44
2018-01-06T06:26:41.446Z,100293.45
2018-01-06T06:27:45.744Z,100290.05
2018-01-06T06:28:50.734Z,100292.13
2018-01-06T06:29:54.921Z,100305.20
2018-01-06T06:30:59.643Z,100300.98
2018-01-06T06:32:05.862Z,100308.55
2018-01-06T06:33:10.399Z,100306.83
2018-01-06T06:34:14.678Z,100308.52
2018-01-06T06:35:19.700Z,100311.01
2018-01-06T06:36:24.054Z,100316.94
2018-01-06T06:37:28.407Z,100314.79
2018-01-06T06:38:33.964Z,100316.45
2018-01-06T06:39:38.357Z,100318.59
2018-01-06T06:40:42.756Z,100321.95
2018-01-06T06:41:47.860Z,100326.97
2018-01-06T06:42:52.174Z,100325.69
2018-01-06T06:43:56.395Z,100322.32
2018-01-06T06:45:03.020Z,100326.13
2018-01-06T06:46:07.685Z,100329.12
2018-01-06T06:47:12.481Z,100328.23
2018-01-06T06:48:17.534Z,100331.20
2018-01-06T06:49:21.717Z,100328.65
2018-01-06T06:50:25.902Z,100329.03
2018-01-06T06:51:30.746Z,100315.50
2018-01-06T06:52:36.057Z,100321.40
2018-01-06T06:53:40.375Z,100322.24
2018-01-06T06:54:44.879Z,100317.17
2018-01-06T06:55:49.267Z,100309.98
2018-01-06T06:56:53.540Z,100308.27
2018-01-06T06:57:58.256Z,100304.02
2018-01-06T06:59:03.847Z,100309.55
2018-01-06T07:00:08.208Z,100310.44
2018-01-06T07:01:13.353Z,100310.38
2018-01-06T07:02:18.309Z,100308.72
2018-01-06T07:03:23.264Z,100306.61
2018-01-06T07:04:27.498Z,100306.64
2018-01-06T07:05:34.387Z,100307.92
2018-01-06T07:06:39.842Z,100314.25
2018-01-06T07:07:44.547Z,100310.45
2018-01-06T07:08:48.910Z,100311.33
2018-01-06T07:09:53.092Z,100310.09
2018-01-06T07:10:58.181Z,100311.79
2018-01-06T07:12:04.038Z,100316.88
2018-01-06T07:13:08.526Z,100309.71
2018-01-06T07:14:12.782Z,100309.28
2018-01-06T07:15:17.148Z,100315.25
2018-01-06T07:16:21.362Z,100321.59
2018-01-06T07:17:25.634Z,100320.77
2018-01-06T07:18:33.157Z,100321.22
2018-01-06T07:19:37.977Z,100320.84
2018-01-06T07:20:42.470Z,100321.67
2018-01-06T07:21:46.842Z,100321.28
2018-01-06T07:22:51.330Z,100328.02
2018-01-06T07:23:55.562Z,100325.09
2018-01-06T07:25:00.181Z,100327.20
2018-01-06T07:26:05.919Z,100326.80
2018-01-06T07:27:11.250Z,100333.98
2018-01-06T07:28:15.497Z,100335.25
2018-01-06T07:29:19.851Z,100327.65
2018-01-06T07:30:24.135Z,100325.09
2018-01-06T07:31:28.412Z,100329.73
2018-01-06T07:32:34.256Z,100336.91
2018-01-06T07:33:39.323Z,100343.28
2018-01-06T07:34:43.855Z,100345.40
2018-01-06T07:35:48.906Z,100352.24
2018-01-06T07:36:53.173Z,100349.32
2018-01-06T07:37:57.405Z,100353.95
2018-01-06T07:39:03.816Z,100359.47
2018-01-06T07:40:08.942Z,100368.34
2018-01-06T07:41:13.862Z,100366.25
2018-01-06T07:42:18.273Z,100367.52
2018-01-06T07:43:22.495Z,100379.37
2018-01-06T07:44:26.710Z,100378.11
2018-01-06T07:45:33.107Z,100374.30
2018-01-06T07:46:38.129Z,100377.67
2018-01-06T07:47:42.432Z,100376.83
2018-01-06T07:48:46.649Z,100383.17
2018-01-06T07:49:50.814Z,100381.91
2018-01-06T07:50:55.815Z,100392.45
2018-01-06T07:52:00.527Z,100396.69
2018-01-06T07:53:06.320Z,100401.76
2018-01-06T07:54:10.798Z,100403.47
2018-01-06T07:55:15.905Z,100407.70
2018-01-06T07:56:20.084Z,100412.77
2018-01-06T07:57:24.400Z,100414.05
2018-01-06T07:58:28.735Z,100408.97
2018-01-06T07:59:34.957Z,100408.98
2018-01-06T08:00:39.315Z,100413.65
2018-01-06T08:01:44.344Z,100411.12
2018-01-06T08:02:48.597Z,100409.02
2018-01-06T08:03:53.592Z,100414.09
2018-01-06T08:04:58.001Z,100412.81
2018-01-06T08:06:03.302Z,100414.09
2018-01-06T08:07:07.840Z,100407.31
2018-01-06T08:08:12.212Z,100411.98
2018-01-06T08:09:17.163Z,100409.02
2018-01-06T08:10:21.346Z,100416.63
2018-01-06T08:11:25.554Z,100417.89
2018-01-06T08:12:31.860Z,100419.59
2018-01-06T08:13:36.771Z,100421.26
2018-01-06T08:14:41.216Z,100426.77
2018-01-06T08:15:45.461Z,100429.30
2018-01-06T08:16:49.805Z,100430.13
2018-01-06T08:17:54.064Z,100431.39
2018-01-06T08:18:58.451Z,100434.77
2018-01-06T08:20:03.510Z,100433.06
2018-01-06T08:21:08.457Z,100438.13
2018-01-06T08:22:12.801Z,100441.09
2018-01-06T08:23:19.526Z,100444.03
2018-01-06T08:24:23.814Z,100448.27
2018-01-06T08:25:28.038Z,100443.59
2018-01-06T08:26:32.831Z,100451.64
2018-01-06T08:27:37.526Z,100455.44
2018-01-06T08:28:41.868Z,100455.00
2018-01-06T08:29:46.170Z,100454.56
2018-01-06T08:30:50.415Z,100453.70
2018-01-06T08:31:54.779Z,100458.77
2018-01-06T08:33:01.442Z,100464.27
2018-01-06T08:34:07.136Z,100468.08
2018-01-06T08:35:11.514Z,100473.15
2018-01-06T08:36:16.495Z,100477.39
2018-01-06T08:37:20.702Z,100476.95
2018-01-06T08:38:24.905Z,100475.25
2018-01-06T08:39:29.790Z,100484.13
2018-01-06T08:40:34.781Z,100488.80
2018-01-06T08:41:39.044Z,100485.39
2018-01-06T08:42:43.361Z,100481.16
2018-01-06T08:43:47.581Z,100483.29
2018-01-06T08:44:51.807Z,100485.39
2018-01-06T08:45:56.687Z,100488.36
2018-01-06T08:47:02.387Z,100488.77
2018-01-06T08:48:07.436Z,100492.56
2018-01-06T08:49:12.116Z,100490.46
2018-01-06T08:50:16.393Z,100488.76
2018-01-06T08:51:20.728Z,100499.34
2018-01-06T08:52:24.945Z,100506.08
2018-01-06T08:53:29.515Z,100506.08
2018-01-06T08:54:35.593Z,100510.72
2018-01-06T08:55:40.719Z,100511.58
2018-01-06T08:56:45.156Z,100514.52
2018-01-06T08:57:50.133Z,100509.84
2018-01-06T08:58:54.318Z,100513.20
2018-01-06T08:59:58.802Z,100509.41
2018-01-06T09:01:04.822Z,100518.28
2018-01-06T09:02:09.253Z,100520.38
2018-01-06T09:03:13.609Z,100529.22
2018-01-06T09:04:17.828Z,100537.27
2018-01-06T09:05:22.017Z,100541.07
2018-01-06T09:06:26.238Z,100543.61
2018-01-06T09:07:31.834Z,100551.62
2018-01-06T09:08:36.852Z,100543.17
2018-01-06T09:09:41.547Z,100550.78
2018-01-06T09:10:45.754Z,100555.86
2018-01-06T09:11:49.931Z,100550.34
2018-01-06T09:12:54.958Z,100549.08
2018-01-06T09:14:00.185Z,100552.05
2018-01-06T09:15:04.729Z,100555.42
2018-01-06T09:16:09.118Z,100554.59
2018-01-06T09:17:14.618Z,100554.59
2018-01-06T09:18:18.862Z,100556.25
2018-01-06T09:19:23.099Z,100563.47
2018-01-06T09:20:29.510Z,100567.67
2018-01-06T09:21:35.755Z,100574.45
2018-01-06T09:22:40.292Z,100568.11
2018-01-06T09:23:45.321Z,100569.34
2018-01-06T09:24:49.557Z,100569.77
2018-01-06T09:25:53.782Z,100572.75
2018-01-06T09:26:59.787Z,100569.33
2018-01-06T09:28:07.522Z,100566.79
2018-01-06T09:29:12.481Z,100564.21
2018-01-06T09:30:16.765Z,100569.29
2018-01-06T09:31:21.844Z,100567.17
2018-01-06T09:32:26.066Z,100567.57
2018-01-06T09:33:30.747Z,100567.13
2018-01-06T09:34:36.323Z,100565.86
2018-01-06T09:35:42.983Z,100564.54
2018-01-06T09:36:47.232Z,100570.00
2018-01-06T09:37:51.483Z,100572.53
2018-01-06T09:38:55.714Z,100570.38
2018-01-06T09:40:00.145Z,100575.45
2018-01-06T09:41:04.507Z,100577.13
2018-01-06T09:42:08.840Z,100583.03
2018-01-06T09:43:14.221Z,100578.33
2018-01-06T09:44:18.405Z,100582.58
2018-01-06T09:45:22.619Z,100586.77
2018-01-06T09:46:26.842Z,100586.33
2018-01-06T09:47:31.322Z,100582.95
2018-01-06T09:48:36.578Z,100581.70
2018-01-06T09:49:41.826Z,100585.50
2018-01-06T09:50:46.140Z,100593.55
2018-01-06T09:51:50.372Z,100589.73
2018-01-06T09:52:54.590Z,100591.41
2018-01-06T09:53:59.056Z,100593.95
2018-01-06T09:55:06.412Z,100594.38
2018-01-06T09:56:12.052Z,100595.22
2018-01-06T09:57:16.386Z,100601.58
2018-01-06T09:58:20.598Z,100605.81
2018-01-06T09:59:24.867Z,100607.91
2018-01-06T10:00:29.354Z,100608.30
2018-01-06T10:01:34.950Z,100610.88
2018-01-06T10:02:40.086Z,100615.53
2018-01-06T10:03:44.437Z,100619.34
2018-01-06T10:04:49.470Z,100619.33
2018-01-06T10:05:53.697Z,100609.58
2018-01-06T10:06:58.022Z,100615.08
2018-01-06T10:08:03.985Z,100614.66
2018-01-06T10:09:08.445Z,100610.90
2018-01-06T10:10:12.861Z,100605.81
2018-01-06T10:11:17.854Z,100613.44
2018-01-06T10:12:22.036Z,100605.81
2018-01-06T10:13:26.259Z,100614.70
2018-01-06T10:14:32.571Z,100615.09
2018-01-06T10:15:37.799Z,100615.53
2018-01-06T10:16:42.476Z,100617.23
2018-01-06T10:17:46.866Z,100609.18
2018-01-06T10:18:51.095Z,100609.62
2018-01-06T10:19:55.334Z,100610.45
2018-01-06T10:21:05.893Z,100612.55
2018-01-06T10:22:10.888Z,100611.67
2018-01-06T10:23:15.192Z,100618.06
2018-01-06T10:24:19.503Z,100621.00
2018-01-06T10:25:23.742Z,100623.16
2018-01-06T10:26:28.084Z,100622.27
2018-01-06T10:27:34.536Z,100626.07
2018-01-06T10:28:39.757Z,100631.16
2018-01-06T10:29:46.313Z,100628.59
2018-01-06T10:30:50.492Z,100635.74
2018-01-06T10:31:54.772Z,100633.58
2018-01-06T10:33:00.554Z,100630.91
2018-01-06T10:34:06.192Z,100627.40
2018-01-06T10:35:10.675Z,100634.98
2018-01-06T10:36:15.647Z,100632.39
2018-01-06T10:37:20.067Z,100629.84
2018-01-06T10:38:24.296Z,100632.36
2018-01-06T10:39:29.033Z,100636.63
2018-01-06T10:40:34.143Z,100631.92
2018-01-06T10:41:38.690Z,100631.84
2018-01-06T10:42:42.994Z,100633.08
2018-01-06T10:43:47.197Z,100636.97
2018-01-06T10:44:51.410Z,100639.53
2018-01-06T10:45:55.710Z,100639.16
2018-01-06T10:47:01.236Z,100648.84
2018-01-06T10:48:06.252Z,100642.89
2018-01-06T10:49:10.675Z,100647.92
2018-01-06T10:50:15.695Z,100644.91
2018-01-06T10:51:20.696Z,100644.08
2018-01-06T10:52:24.890Z,100642.38
2018-01-06T10:53:29.240Z,100656.45
2018-01-06T10:54:35.315Z,100650.47
2018-01-06T10:55:39.739Z,100651.29
2018-01-06T10:56:44.051Z,100648.80
2018-01-06T10:57:48.270Z,100650.45
2018-01-06T10:58:52.539Z,100650.42
2018-01-06T10:59:57.490Z,100643.14
2018-01-06T11:01:08.443Z,100649.42
2018-01-06T11:02:13.524Z,100647.72
2018-01-06T11:03:17.734Z,100654.18
2018-01-06T11:04:21.941Z,100651.16
2018-01-06T11:05:26.235Z,100654.50
2018-01-06T11:06:33.961Z,100657.88
2018-01-06T11:07:38.352Z,100659.07
2018-01-06T11:08:42.961Z,100667.23
2018-01-06T11:09:47.173Z,100670.27
2018-01-06T11:10:51.482Z,100666.42
2018-01-06T11:11:55.717Z,100665.51
2018-01-06T11:13:00.278Z,100661.69
2018-01-06T11:14:06.394Z,100665.13
2018-01-06T11:15:11.572Z,100669.81
2018-01-06T11:16:16.557Z,100676.64
2018-01-06T11:17:20.795Z,100682.25
2018-01-06T11:18:25.011Z,100678.05
2018-01-06T11:19:31.516Z,100683.09
2018-01-06T11:20:37.296Z,100680.91
2018-01-06T11:21:41.884Z,100685.88
2018-01-06T11:22:46.102Z,100678.97
2018-01-06T11:23:50.307Z,100683.50
2018-01-06T11:24:54.538Z,100687.23
2018-01-06T11:25:59.081Z,100685.59
2018-01-06T11:27:05.396Z,100686.36
2018-01-06T11:28:09.638Z,100685.92
2018-01-06T11:29:13.848Z,100683.06
2018-01-06T11:30:18.021Z,100688.66
2018-01-06T11:31:22.237Z,100686.94
2018-01-06T11:32:26.555Z,100685.76
2018-01-06T11:33:31.384Z,100687.05
2018-01-06T11:34:36.940Z,100691.70
2018-01-06T11:35:41.540Z,100692.54
2018-01-06T11:36:45.767Z,100693.03
2018-01-06T11:37:50.070Z,100697.31
2018-01-06T11:38:54.380Z,100696.05
2018-01-06T11:40:00.275Z,100698.04
2018-01-06T11:41:06.384Z,100694.27
2018-01-06T11:42:10.789Z,100703.17
2018-01-06T11:43:15.019Z,100699.34
2018-01-06T11:44:19.237Z,100708.72
2018-01-06T11:45:23.476Z,100711.21
2018-01-06T11:46:27.955Z,100707.33
2018-01-06T11:47:33.695Z,100713.23
2018-01-06T11:48:37.941Z,100714.50
2018-01-06T11:49:42.165Z,100720.03
2018-01-06T11:50:46.412Z,100720.06
2018-01-06T11:51:51.343Z,100712.80
2018-01-06T11:52:56.331Z,100714.41
2018-01-06T11:54:01.464Z,100718.11
2018-01-06T11:55:08.812Z,100721.48
2018-01-06T11:56:13.174Z,100721.94
2018-01-06T11:57:17.415Z,100719.36
2018-01-06T11:58:22.363Z,100721.34
2018-01-06T11:59:26.578Z,100722.88
2018-01-06T12:00:31.960Z,100725.37
2018-01-06T12:01:38.650Z,100726.56
2018-01-06T12:02:42.941Z,100725.64
2018-01-06T12:03:47.179Z,100729.81
2018-01-06T12:04:52.332Z,100727.72
2018-01-06T12:05:56.569Z,100726.48
2018-01-06T12:07:02.331Z,100727.23
2018-01-06T12:08:06.905Z,100731.79
2018-01-06T12:09:11.934Z,100731.38
2018-01-06T12:10:16.157Z,100733.48
2018-01-06T12:11:20.323Z,100732.54
2018-01-06T12:12:24.673Z,100729.44
2018-01-06T12:13:33.931Z,100736.13
2018-01-06T12:14:39.271Z,100734.39
2018-01-06T12:15:44.363Z,100735.91
2018-01-06T12:16:48.574Z,100731.73
2018-01-06T12:17:54.569Z,100739.73
2018-01-06T12:18:59.125Z,100738.48
2018-01-06T12:20:05.436Z,100735.20
2018-01-06T12:21:10.265Z,100732.53
2018-01-06T12:22:14.614Z,100733.23